Time;durP1;ratioP1;P1;durP2;ratioP2;P2;SDS_P1;SDS_P2;PMS_P1;PMS_P2;Temp;Humidity;BMP_temperature;BMP_pressure;BME280_temperature;BME280_humidity;BME280_pressure;Samples;Min_cycle;Max_cycle;Signal;HPM_P1;HPM_P2
2021/08/01 00:18:35;;;;;;;8.50;6.87;;;;;;;;;;4223718;28;20185;-69
2021/08/01 00:21:02;;;;;;;13.18;6.43;;;;;;;;;;4205550;34;20568;-73
2021/08/01 00:23:28;;;;;;;14.45;6.57;;;;;;;;;;4205717;34;20153;-74
2021/08/01 00:25:56;;;;;;;10.20;7.47;;;;;;;;;;4200439;34;20118;-74
2021/08/01 00:28:22;;;;;;;11.40;6.93;;;;;;;;;;4179189;34;20193;-70
2021/08/01 00:30:48;;;;;;;8.05;6.40;;;;;;;;;;4178968;34;20149;-73
2021/08/01 00:33:13;;;;;;;12.15;6.53;;;;;;;;;;4191694;34;20123;-70
2021/08/01 00:35:39;;;;;;;7.75;6.15;;;;;;;;;;4203463;34;20117;-73
2021/08/01 00:38:06;;;;;;;9.27;6.70;;;;;;;;;;4204588;34;20102;-73
2021/08/01 00:40:33;;;;;;;10.10;6.68;;;;;;;;;;4181094;34;20120;-73
2021/08/01 00:42:59;;;;;;;12.15;6.70;;;;;;;;;;4205240;34;20093;-73
2021/08/01 00:45:24;;;;;;;9.35;6.37;;;;;;;;;;4192520;34;20133;-73
2021/08/01 00:47:50;;;;;;;9.70;6.18;;;;;;;;;;4192437;34;20457;-73
2021/08/01 00:50:16;;;;;;;8.10;6.50;;;;;;;;;;4192465;34;20141;-72
2021/08/01 00:52:43;;;;;;;15.68;7.32;;;;;;;;;;4193175;34;20126;-73
2021/08/01 00:55:10;;;;;;;9.55;6.75;;;;;;;;;;4178950;34;20121;-73
2021/08/01 00:57:36;;;;;;;10.43;7.10;;;;;;;;;;4191259;34;20610;-73
2021/08/01 01:00:03;;;;;;;12.15;6.55;;;;;;;;;;4191458;34;20128;-73
2021/08/01 01:02:36;;;;;;;10.70;6.78;;;;;;;;;;4178533;34;20110;-73
2021/08/01 01:05:21;;;;;;;10.05;6.40;;;;;;;;;;4178665;34;20105;-72
2021/08/01 01:08:12;;;;;;;12.52;6.80;;;;;;;;;;4178645;34;20212;-72
2021/08/01 01:10:40;;;;;;;12.50;6.28;;;;;;;;;;4178550;34;20117;-73
2021/08/01 01:13:14;;;;;;;8.75;6.95;;;;;;;;;;4178392;34;20109;-72
2021/08/01 01:15:45;;;;;;;11.05;6.53;;;;;;;;;;4178780;34;20124;-73
2021/08/01 01:18:17;;;;;;;9.95;6.72;;;;;;;;;;4185264;34;20173;-73
2021/08/01 01:21:04;;;;;;;12.43;7.20;;;;;;;;;;4189787;34;20125;-73
2021/08/01 01:23:40;;;;;;;10.07;6.62;;;;;;;;;;4191261;34;20181;-73
2021/08/01 01:26:25;;;;;;;12.27;6.57;;;;;;;;;;4191297;34;20109;-73
2021/08/01 01:29:05;;;;;;;11.27;7.70;;;;;;;;;;4189784;34;20114;-73
2021/08/01 01:31:48;;;;;;;7.47;6.47;;;;;;;;;;4189844;34;20105;-73
2021/08/01 01:34:36;;;;;;;13.85;7.03;;;;;;;;;;4190064;34;20106;-73
2021/08/01 01:37:06;;;;;;;12.40;7.22;;;;;;;;;;4191386;34;20437;-72
2021/08/01 01:39:34;;;;;;;11.75;7.07;;;;;;;;;;4178946;34;20201;-73
2021/08/01 01:42:00;;;;;;;9.63;6.95;;;;;;;;;;4189707;34;20518;-73
2021/08/01 01:44:26;;;;;;;7.80;6.28;;;;;;;;;;4189873;34;20118;-72
2021/08/01 01:46:52;;;;;;;10.63;6.70;;;;;;;;;;4178357;34;20216;-73
2021/08/01 01:49:18;;;;;;;11.93;7.50;;;;;;;;;;4189216;34;20125;-72
2021/08/01 01:51:44;;;;;;;15.18;7.70;;;;;;;;;;4172605;34;20125;-73
2021/08/01 01:54:09;;;;;;;10.95;7.40;;;;;;;;;;4176212;34;20118;-73
2021/08/01 01:56:36;;;;;;;10.20;7.30;;;;;;;;;;4175687;34;20235;-73
2021/08/01 01:59:02;;;;;;;10.80;7.75;;;;;;;;;;4175888;34;20106;-73
2021/08/01 02:01:28;;;;;;;11.60;6.95;;;;;;;;;;4177401;34;20134;-73
2021/08/01 02:03:54;;;;;;;8.70;7.25;;;;;;;;;;4177089;34;20457;-73
2021/08/01 02:06:20;;;;;;;15.13;7.35;;;;;;;;;;4177432;34;20109;-73
2021/08/01 02:08:49;;;;;;;9.25;7.37;;;;;;;;;;4175806;34;20541;-72
2021/08/01 02:11:15;;;;;;;11.65;6.82;;;;;;;;;;4177303;34;20118;-73
2021/08/01 02:13:50;;;;;;;9.95;6.65;;;;;;;;;;4175705;34;20218;-73
2021/08/01 02:16:16;;;;;;;13.70;7.47;;;;;;;;;;4175792;34;20189;-73
2021/08/01 02:18:50;;;;;;;12.13;7.90;;;;;;;;;;4181363;34;20513;-73
2021/08/01 02:21:22;;;;;;;7.97;6.65;;;;;;;;;;4189465;34;20118;-73
2021/08/01 02:23:48;;;;;;;11.18;6.85;;;;;;;;;;4189577;34;20221;-73
2021/08/01 02:26:17;;;;;;;9.10;6.80;;;;;;;;;;4189188;34;20129;-73
2021/08/01 02:28:43;;;;;;;12.93;6.72;;;;;;;;;;4190660;34;20110;-73
2021/08/01 02:31:08;;;;;;;18.58;6.07;;;;;;;;;;4189407;34;20125;-73
2021/08/01 02:33:34;;;;;;;8.40;6.28;;;;;;;;;;4189146;34;20141;-73
2021/08/01 02:36:02;;;;;;;12.75;6.93;;;;;;;;;;4189383;34;20137;-73
2021/08/01 02:38:28;;;;;;;11.15;7.18;;;;;;;;;;4190714;34;20485;-73
2021/08/01 02:40:55;;;;;;;6.72;5.85;;;;;;;;;;4178135;34;20101;-73
2021/08/01 02:43:24;;;;;;;9.15;6.20;;;;;;;;;;4189024;34;20098;-72
2021/08/01 02:45:50;;;;;;;9.07;5.70;;;;;;;;;;4178036;34;20200;-73
2021/08/01 02:48:16;;;;;;;8.20;5.85;;;;;;;;;;4188932;34;20217;-73
2021/08/01 02:50:45;;;;;;;10.88;6.43;;;;;;;;;;4177800;34;20132;-73
2021/08/01 02:53:11;;;;;;;8.95;6.18;;;;;;;;;;4189143;34;20137;-73
2021/08/01 02:55:38;;;;;;;13.98;7.15;;;;;;;;;;4189160;34;20156;-72
2021/08/01 02:58:04;;;;;;;9.13;6.07;;;;;;;;;;4189168;34;20121;-73
2021/08/01 03:00:30;;;;;;;9.48;6.20;;;;;;;;;;4189974;34;20121;-73
2021/08/01 03:02:56;;;;;;;9.77;6.65;;;;;;;;;;4179580;34;20114;-73
2021/08/01 03:05:22;;;;;;;8.93;6.20;;;;;;;;;;4191142;34;20494;-73
2021/08/01 03:07:48;;;;;;;12.65;6.55;;;;;;;;;;4191259;34;20222;-73
2021/08/01 03:10:14;;;;;;;9.23;6.70;;;;;;;;;;4179549;34;20550;-73
2021/08/01 03:12:43;;;;;;;9.60;6.07;;;;;;;;;;4192364;34;20618;-73
2021/08/01 03:15:10;;;;;;;9.23;6.05;;;;;;;;;;4190747;34;20567;-73
2021/08/01 03:17:35;;;;;;;9.05;5.87;;;;;;;;;;4199153;34;20208;-73
2021/08/01 03:20:02;;;;;;;9.52;6.95;;;;;;;;;;4193143;34;20540;-72
2021/08/01 03:22:27;;;;;;;16.65;7.75;;;;;;;;;;4193277;34;20148;-73
2021/08/01 03:24:53;;;;;;;12.60;8.48;;;;;;;;;;4206105;34;20133;-73
2021/08/01 03:27:19;;;;;;;10.15;7.80;;;;;;;;;;4205813;34;20122;-73
2021/08/01 03:29:45;;;;;;;11.02;7.20;;;;;;;;;;4193126;34;20125;-73
2021/08/01 03:32:11;;;;;;;13.07;6.57;;;;;;;;;;4206078;34;20158;-72
2021/08/01 03:34:37;;;;;;;9.43;6.78;;;;;;;;;;4206147;34;20125;-73
2021/08/01 03:37:03;;;;;;;8.45;6.20;;;;;;;;;;4205930;34;20541;-73
2021/08/01 03:39:33;;;;;;;11.27;6.65;;;;;;;;;;4193006;34;20114;-73
2021/08/01 03:42:00;;;;;;;10.63;6.72;;;;;;;;;;4193618;34;20117;-73
2021/08/01 03:44:26;;;;;;;11.05;7.75;;;;;;;;;;4205980;34;20113;-73
2021/08/01 03:46:52;;;;;;;11.05;7.50;;;;;;;;;;4205877;34;20537;-73
2021/08/01 03:49:18;;;;;;;9.68;6.30;;;;;;;;;;4192966;34;20121;-72
2021/08/01 03:51:44;;;;;;;11.30;6.05;;;;;;;;;;4205666;34;20114;-72
2021/08/01 03:54:10;;;;;;;9.10;6.20;;;;;;;;;;4206055;34;20218;-73
2021/08/01 03:56:46;;;;;;;10.38;5.75;;;;;;;;;;4205762;34;20129;-73
2021/08/01 03:59:12;;;;;;;7.65;5.75;;;;;;;;;;4193268;34;20130;-73
2021/08/01 04:01:38;;;;;;;13.93;5.53;;;;;;;;;;4205664;34;20489;-73
2021/08/01 04:04:04;;;;;;;7.22;5.28;;;;;;;;;;4205619;34;20224;-73
2021/08/01 04:06:30;;;;;;;7.95;5.80;;;;;;;;;;4205736;34;20117;-73
2021/08/01 04:08:56;;;;;;;7.70;5.07;;;;;;;;;;4205623;34;20455;-73
2021/08/01 04:11:22;;;;;;;5.55;4.90;;;;;;;;;;4205579;34;20125;-73
2021/08/01 04:13:48;;;;;;;9.70;6.30;;;;;;;;;;4205648;34;20164;-73
2021/08/01 04:16:14;;;;;;;6.95;5.25;;;;;;;;;;4205381;34;20442;-73
2021/08/01 04:18:40;;;;;;;8.23;6.03;;;;;;;;;;4192733;34;20106;-73
2021/08/01 04:21:15;;;;;;;9.27;6.30;;;;;;;;;;4181445;34;20109;-73
2021/08/01 04:23:41;;;;;;;7.40;5.53;;;;;;;;;;4192663;34;20106;-72
2021/08/01 04:26:08;;;;;;;8.13;4.47;;;;;;;;;;4205551;34;20525;-73
2021/08/01 04:28:34;;;;;;;7.95;5.78;;;;;;;;;;4205361;34;20113;-73
2021/08/01 04:31:00;;;;;;;11.95;5.87;;;;;;;;;;4205628;34;20124;-73
2021/08/01 04:33:26;;;;;;;9.50;5.32;;;;;;;;;;4192588;34;20129;-73
2021/08/01 04:35:52;;;;;;;10.38;5.43;;;;;;;;;;4192827;34;20830;-73
2021/08/01 04:38:18;;;;;;;9.73;6.30;;;;;;;;;;4205544;34;20137;-73
2021/08/01 04:40:43;;;;;;;9.68;6.25;;;;;;;;;;4205379;34;20523;-73
2021/08/01 04:43:09;;;;;;;11.05;5.25;;;;;;;;;;4205195;34;20117;-73
2021/08/01 04:45:35;;;;;;;10.98;5.80;;;;;;;;;;4205392;34;20102;-73
2021/08/01 04:48:01;;;;;;;6.40;5.00;;;;;;;;;;4205312;34;20121;-73
2021/08/01 04:50:27;;;;;;;10.02;5.20;;;;;;;;;;4205563;34;20129;-73
2021/08/01 04:52:53;;;;;;;6.97;5.57;;;;;;;;;;4192239;34;20152;-73
2021/08/01 04:55:19;;;;;;;6.72;4.55;;;;;;;;;;4192617;34;20609;-73
2021/08/01 04:57:45;;;;;;;9.88;5.15;;;;;;;;;;4205177;34;20117;-73
2021/08/01 05:00:12;;;;;;;7.68;4.87;;;;;;;;;;4205476;34;20449;-74
2021/08/01 05:02:38;;;;;;;7.35;4.43;;;;;;;;;;4205067;34;20579;-73
2021/08/01 05:05:04;;;;;;;7.03;5.78;;;;;;;;;;4205254;34;20216;-73
2021/08/01 05:07:30;;;;;;;8.05;4.55;;;;;;;;;;4205080;34;20129;-74
2021/08/01 05:09:56;;;;;;;9.85;5.55;;;;;;;;;;4205435;34;20129;-74
2021/08/01 05:12:22;;;;;;;6.47;4.40;;;;;;;;;;4192066;34;20481;-74
2021/08/01 05:14:49;;;;;;;5.32;3.72;;;;;;;;;;4205058;34;20117;-73
2021/08/01 05:17:15;;;;;;;9.02;5.03;;;;;;;;;;4192028;34;20550;-74
2021/08/01 05:19:41;;;;;;;6.72;4.40;;;;;;;;;;4205260;34;20116;-74
2021/08/01 05:22:10;;;;;;;10.45;5.40;;;;;;;;;;4205018;34;20124;-74
2021/08/01 05:24:39;;;;;;;6.53;4.90;;;;;;;;;;4204713;34;20200;-74
2021/08/01 05:27:05;;;;;;;10.40;5.37;;;;;;;;;;4192531;34;20185;-73
2021/08/01 05:29:31;;;;;;;10.27;5.10;;;;;;;;;;4204917;34;20217;-73
2021/08/01 05:31:57;;;;;;;5.85;4.85;;;;;;;;;;4205189;34;20133;-72
2021/08/01 05:34:23;;;;;;;7.62;4.40;;;;;;;;;;4204973;34;20145;-72
2021/08/01 05:36:49;;;;;;;7.15;5.20;;;;;;;;;;4205136;34;20125;-73
2021/08/01 05:39:15;;;;;;;6.55;4.80;;;;;;;;;;4204840;34;20510;-73
2021/08/01 05:41:41;;;;;;;6.05;4.53;;;;;;;;;;4192094;34;20111;-73
2021/08/01 05:44:07;;;;;;;5.47;4.70;;;;;;;;;;4191980;34;20238;-73
2021/08/01 05:46:32;;;;;;;10.27;5.18;;;;;;;;;;4204766;34;20157;-73
2021/08/01 05:48:58;;;;;;;5.15;4.43;;;;;;;;;;4204873;34;20128;-74
2021/08/01 05:51:24;;;;;;;8.68;4.90;;;;;;;;;;4191884;34;20136;-73
2021/08/01 05:53:50;;;;;;;9.73;5.18;;;;;;;;;;4191916;34;20121;-73
2021/08/01 05:56:16;;;;;;;6.65;4.85;;;;;;;;;;4204733;34;20133;-73
2021/08/01 05:58:42;;;;;;;8.68;4.57;;;;;;;;;;4191990;34;20615;-72
2021/08/01 06:01:11;;;;;;;8.15;5.07;;;;;;;;;;4204710;34;20118;-73
2021/08/01 06:03:38;;;;;;;7.65;4.53;;;;;;;;;;4204619;34;20116;-72
2021/08/01 06:06:14;;;;;;;6.62;4.62;;;;;;;;;;4204642;34;20122;-71
2021/08/01 06:08:41;;;;;;;8.32;4.10;;;;;;;;;;4204641;34;20501;-68
2021/08/01 06:11:07;;;;;;;6.32;4.43;;;;;;;;;;4191951;34;20102;-74
2021/08/01 06:13:33;;;;;;;11.18;4.20;;;;;;;;;;4204528;34;20133;-73
2021/08/01 06:15:59;;;;;;;6.93;4.25;;;;;;;;;;4192100;34;20121;-74
2021/08/01 06:18:25;;;;;;;8.50;4.57;;;;;;;;;;4191496;34;20134;-73
2021/08/01 06:21:13;;;;;;;5.80;4.25;;;;;;;;;;4204684;34;20134;-72
2021/08/01 06:23:39;;;;;;;6.10;4.22;;;;;;;;;;4204532;34;20105;-72
2021/08/01 06:26:05;;;;;;;6.28;3.40;;;;;;;;;;4191762;34;20125;-71
2021/08/01 06:28:32;;;;;;;6.65;3.97;;;;;;;;;;4204400;34;20122;-72
2021/08/01 06:31:01;;;;;;;4.30;3.25;;;;;;;;;;4191606;34;20141;-72
2021/08/01 06:33:26;;;;;;;5.53;3.87;;;;;;;;;;4191780;34;20124;-72
2021/08/01 06:35:52;;;;;;;4.40;3.33;;;;;;;;;;4191477;34;20518;-72
2021/08/01 06:38:18;;;;;;;4.55;3.65;;;;;;;;;;4191541;34;20122;-72
2021/08/01 06:40:44;;;;;;;5.93;3.35;;;;;;;;;;4191504;34;20117;-72
2021/08/01 06:43:10;;;;;;;5.22;3.85;;;;;;;;;;4204201;34;20205;-71
2021/08/01 06:45:36;;;;;;;4.65;3.50;;;;;;;;;;4204284;34;20118;-72
2021/08/01 06:48:02;;;;;;;5.65;4.47;;;;;;;;;;4191417;34;20113;-72
2021/08/01 06:50:28;;;;;;;6.30;4.20;;;;;;;;;;4191502;34;20120;-72
2021/08/01 06:52:54;;;;;;;5.78;4.37;;;;;;;;;;4204293;34;20203;-72
2021/08/01 06:55:20;;;;;;;4.87;4.00;;;;;;;;;;4191339;34;20133;-72
2021/08/01 06:57:45;;;;;;;5.37;3.92;;;;;;;;;;4191211;34;20113;-72
2021/08/01 07:00:12;;;;;;;7.28;4.20;;;;;;;;;;4191386;34;20510;-72
2021/08/01 07:02:38;;;;;;;8.13;4.55;;;;;;;;;;4191469;34;20101;-72
2021/08/01 07:05:04;;;;;;;6.32;4.55;;;;;;;;;;4204333;34;20140;-72
2021/08/01 07:07:30;;;;;;;12.73;4.80;;;;;;;;;;4191126;34;20106;-72
2021/08/01 07:09:56;;;;;;;13.80;4.22;;;;;;;;;;4204117;34;20127;-71
2021/08/01 07:12:22;;;;;;;5.97;4.68;;;;;;;;;;4204318;34;20497;-71
2021/08/01 07:14:48;;;;;;;5.25;4.28;;;;;;;;;;4191211;34;20125;-71
2021/08/01 07:17:14;;;;;;;7.78;4.57;;;;;;;;;;4203672;34;20134;-71
2021/08/01 07:19:39;;;;;;;11.30;4.35;;;;;;;;;;4204020;34;20109;-71
2021/08/01 07:22:05;;;;;;;7.65;4.32;;;;;;;;;;4204128;34;20205;-71
2021/08/01 07:24:31;;;;;;;5.85;4.32;;;;;;;;;;4204008;34;20134;-69
2021/08/01 07:26:57;;;;;;;11.00;4.22;;;;;;;;;;4191060;34;20270;-72
2021/08/01 07:29:24;;;;;;;3.15;2.85;;;;;;;;;;4191285;34;20193;-71
2021/08/01 07:31:50;;;;;;;7.68;4.30;;;;;;;;;;4203876;34;20133;-71
2021/08/01 07:34:16;;;;;;;4.57;3.80;;;;;;;;;;4204285;34;20104;-71
2021/08/01 07:36:45;;;;;;;4.43;3.50;;;;;;;;;;4203873;34;20118;-71
2021/08/01 07:39:11;;;;;;;3.42;3.08;;;;;;;;;;4191278;34;20135;-68
2021/08/01 07:41:37;;;;;;;4.95;3.95;;;;;;;;;;4203779;34;20193;-68
2021/08/01 07:44:03;;;;;;;3.47;2.80;;;;;;;;;;4203675;34;20118;-71
2021/08/01 07:46:29;;;;;;;4.05;3.10;;;;;;;;;;4204523;34;20129;-72
2021/08/01 07:48:55;;;;;;;4.55;4.15;;;;;;;;;;4205907;34;20118;-69
2021/08/01 07:51:20;;;;;;;18.33;4.32;;;;;;;;;;4205841;34;20501;-72
2021/08/01 07:53:46;;;;;;;6.65;4.65;;;;;;;;;;4206288;34;20140;-71
2021/08/01 07:56:12;;;;;;;6.37;4.55;;;;;;;;;;4205830;34;20129;-72
2021/08/01 07:58:38;;;;;;;7.47;4.68;;;;;;;;;;4206105;34;20113;-72
2021/08/01 08:01:04;;;;;;;8.75;4.47;;;;;;;;;;4192922;34;20109;-68
2021/08/01 08:03:30;;;;;;;5.32;3.75;;;;;;;;;;4192843;34;20104;-69
2021/08/01 08:05:57;;;;;;;5.70;4.30;;;;;;;;;;4181654;34;20106;-69
2021/08/01 08:08:23;;;;;;;5.80;4.07;;;;;;;;;;4193061;34;20126;-70
2021/08/01 08:10:49;;;;;;;3.20;2.92;;;;;;;;;;4205734;34;20145;-71
2021/08/01 08:13:15;;;;;;;4.43;3.62;;;;;;;;;;4205686;34;20137;-67
2021/08/01 08:15:41;;;;;;;12.48;4.35;;;;;;;;;;4192891;34;20120;-70
2021/08/01 08:18:07;;;;;;;8.65;4.45;;;;;;;;;;4205428;34;20089;-67
2021/08/01 08:20:33;;;;;;;5.05;3.95;;;;;;;;;;4205755;34;20457;-71
2021/08/01 08:22:59;;;;;;;3.40;2.75;;;;;;;;;;4205846;34;20522;-71
2021/08/01 08:25:25;;;;;;;4.37;3.42;;;;;;;;;;4205564;34;20245;-70
2021/08/01 08:27:51;;;;;;;7.55;3.80;;;;;;;;;;4205665;34;20247;-69
2021/08/01 08:30:17;;;;;;;7.72;4.10;;;;;;;;;;4205715;34;20612;-70
2021/08/01 08:32:43;;;;;;;5.90;2.97;;;;;;;;;;4192773;34;20186;-67
2021/08/01 08:35:09;;;;;;;8.43;3.70;;;;;;;;;;4205510;34;20533;-67
2021/08/01 08:37:53;;;;;;;5.55;3.58;;;;;;;;;;4205731;34;20576;-68
2021/08/01 08:40:20;;;;;;;4.70;3.90;;;;;;;;;;4193005;34;20117;-71
2021/08/01 08:42:48;;;;;;;9.20;3.45;;;;;;;;;;4192331;34;20462;-67
2021/08/01 08:45:15;;;;;;;9.93;3.65;;;;;;;;;;4192613;34;20136;-66
2021/08/01 08:47:45;;;;;;;5.55;3.72;;;;;;;;;;4205314;34;20121;-66
2021/08/01 08:50:14;;;;;;;5.10;3.60;;;;;;;;;;4205791;34;20108;-64
2021/08/01 08:52:43;;;;;;;7.18;4.43;;;;;;;;;;4189335;34;20138;-68
2021/08/01 08:55:11;;;;;;;4.82;3.75;;;;;;;;;;4186653;34;20110;-67
2021/08/01 08:57:38;;;;;;;6.18;3.25;;;;;;;;;;4197336;34;20105;-69
2021/08/01 09:00:06;;;;;;;3.78;2.83;;;;;;;;;;4178900;34;20225;-67
2021/08/01 09:02:34;;;;;;;9.13;3.58;;;;;;;;;;4202509;34;20136;-69
2021/08/01 09:05:00;;;;;;;4.32;3.47;;;;;;;;;;4192751;34;20527;-67
2021/08/01 09:07:25;;;;;;;5.03;3.25;;;;;;;;;;4205090;34;20110;-68
2021/08/01 09:09:52;;;;;;;5.47;3.60;;;;;;;;;;4201212;34;20638;-70
2021/08/01 09:12:19;;;;;;;4.95;3.25;;;;;;;;;;4178706;34;20143;-67
2021/08/01 09:14:45;;;;;;;4.62;3.12;;;;;;;;;;4191691;34;20185;-74
2021/08/01 09:17:11;;;;;;;5.05;3.40;;;;;;;;;;4190971;34;20126;-73
2021/08/01 09:19:46;;;;;;;3.37;3.08;;;;;;;;;;4196774;34;20125;-71
2021/08/01 09:22:22;;;;;;;2.90;2.45;;;;;;;;;;4200408;34;20540;-67
2021/08/01 09:24:49;;;;;;;3.55;2.60;;;;;;;;;;4190946;34;20122;-70
2021/08/01 09:27:34;;;;;;;4.87;3.47;;;;;;;;;;4194808;34;20134;-70
2021/08/01 09:30:00;;;;;;;4.65;3.65;;;;;;;;;;4201730;34;20120;-70
2021/08/01 09:32:29;;;;;;;8.85;3.87;;;;;;;;;;4178657;34;20129;-70
2021/08/01 09:34:55;;;;;;;6.75;3.60;;;;;;;;;;4184335;34;20097;-69
2021/08/01 09:37:34;;;;;;;5.00;3.15;;;;;;;;;;4204882;34;20137;-69
2021/08/01 09:40:05;;;;;;;4.78;3.50;;;;;;;;;;4192194;34;20106;-70
2021/08/01 09:42:40;;;;;;;4.95;3.47;;;;;;;;;;4204340;34;20196;-66
2021/08/01 09:45:13;;;;;;;5.25;3.55;;;;;;;;;;4191174;34;20537;-69
2021/08/01 09:47:39;;;;;;;4.60;3.47;;;;;;;;;;4191003;34;20117;-66
2021/08/01 09:50:06;;;;;;;11.93;4.05;;;;;;;;;;4191153;34;20144;-72
2021/08/01 09:52:32;;;;;;;7.30;3.40;;;;;;;;;;4191221;34;20137;-68
2021/08/01 09:54:58;;;;;;;5.65;3.72;;;;;;;;;;4178788;34;20228;-68
2021/08/01 09:57:24;;;;;;;6.93;4.07;;;;;;;;;;4191160;34;20229;-68
2021/08/01 10:00:04;;;;;;;4.65;3.70;;;;;;;;;;4193176;34;20528;-68
2021/08/01 10:02:39;;;;;;;7.28;3.75;;;;;;;;;;4204882;34;20121;-69
2021/08/01 10:05:22;;;;;;;5.68;3.42;;;;;;;;;;4186587;34;20105;-68
2021/08/01 10:07:55;;;;;;;4.55;3.22;;;;;;;;;;4203506;34;20518;-67
2021/08/01 10:10:25;;;;;;;9.20;3.12;;;;;;;;;;4191032;34;20106;-68
2021/08/01 10:12:55;;;;;;;4.40;3.50;;;;;;;;;;4191272;34;20130;-65
2021/08/01 10:15:21;;;;;;;7.00;3.53;;;;;;;;;;4178534;34;20477;-67
2021/08/01 10:17:47;;;;;;;5.35;3.80;;;;;;;;;;4191230;34;20209;-64
2021/08/01 10:20:13;;;;;;;4.30;3.33;;;;;;;;;;4178358;34;20145;-67
2021/08/01 10:22:41;;;;;;;5.20;3.60;;;;;;;;;;4203339;34;20294;-68
2021/08/01 10:25:28;;;;;;;10.65;3.53;;;;;;;;;;4192204;34;20133;-68
2021/08/01 10:27:54;;;;;;;4.00;3.42;;;;;;;;;;4192313;34;20116;-69
2021/08/01 10:30:27;;;;;;;4.93;3.50;;;;;;;;;;4191966;34;20241;-69
2021/08/01 10:32:59;;;;;;;3.53;2.97;;;;;;;;;;4205016;34;20118;-67
2021/08/01 10:35:25;;;;;;;4.72;3.80;;;;;;;;;;4191991;34;20273;-68
2021/08/01 10:37:56;;;;;;;4.12;3.17;;;;;;;;;;4190834;34;20090;-65
2021/08/01 10:40:23;;;;;;;6.25;3.62;;;;;;;;;;4178437;34;20185;-64
2021/08/01 10:43:00;;;;;;;5.50;3.87;;;;;;;;;;4178506;34;20111;-68
2021/08/01 10:45:26;;;;;;;4.32;3.25;;;;;;;;;;4190635;34;20101;-65
2021/08/01 10:47:52;;;;;;;4.78;2.85;;;;;;;;;;4193597;34;20125;-66
2021/08/01 10:50:22;;;;;;;4.80;3.58;;;;;;;;;;4187714;34;20160;-68
2021/08/01 10:52:48;;;;;;;6.70;3.30;;;;;;;;;;4168630;34;20109;-68
2021/08/01 10:55:22;;;;;;;5.53;3.10;;;;;;;;;;4179085;34;20113;-68
2021/08/01 10:58:20;;;;;;;4.93;3.25;;;;;;;;;;4198462;34;20220;-68
2021/08/01 11:00:56;;;;;;;4.55;3.60;;;;;;;;;;4179511;34;20122;-69
2021/08/01 11:03:24;;;;;;;;;;;;;;;;;;4192994;34;20114;-66
2021/08/01 11:05:52;;;;;;;5.55;3.03;;;;;;;;;;4204389;34;19981;-71
2021/08/01 11:08:19;;;;;;;8.90;3.50;;;;;;;;;;4191548;34;20513;-69
2021/08/01 11:10:47;;;;;;;8.07;3.05;;;;;;;;;;4191384;34;20137;-67
2021/08/01 11:13:31;;;;;;;6.35;2.85;;;;;;;;;;4194921;34;20479;-69
2021/08/01 11:15:57;;;;;;;4.10;2.62;;;;;;;;;;4190388;34;20169;-67
2021/08/01 11:18:31;;;;;;;3.08;2.50;;;;;;;;;;4177458;34;20125;-70
2021/08/01 11:20:59;;;;;;;3.45;2.28;;;;;;;;;;4190656;34;20120;-70
2021/08/01 11:23:47;;;;;;;4.32;3.22;;;;;;;;;;4192408;34;20528;-69
2021/08/01 11:26:14;;;;;;;6.10;3.28;;;;;;;;;;4192461;34;20122;-69
2021/08/01 11:28:41;;;;;;;4.35;3.10;;;;;;;;;;4192194;34;20133;-67
2021/08/01 11:31:10;;;;;;;3.65;3.30;;;;;;;;;;4183675;34;20129;-68
2021/08/01 11:33:44;;;;;;;4.30;2.72;;;;;;;;;;4192577;34;20189;-69
2021/08/01 11:36:17;;;;;;;;;;;;;;;;;;4199959;34;20210;-67
2021/08/01 11:38:52;;;;;;;6.80;3.42;;;;;;;;;;4198542;34;20086;-64
2021/08/01 11:41:27;;;;;;;4.45;3.28;;;;;;;;;;4200129;34;20509;-69
2021/08/01 11:43:59;;;;;;;5.70;3.00;;;;;;;;;;4192006;34;20130;-67
2021/08/01 11:46:26;;;;;;;3.40;2.87;;;;;;;;;;4202801;34;20113;-69
2021/08/01 11:49:01;;;;;;;15.35;3.40;;;;;;;;;;4193485;34;20114;-67
2021/08/01 11:51:32;;;;;;;10.48;3.47;;;;;;;;;;4205822;34;20117;-70
2021/08/01 11:54:00;;;;;;;4.47;3.47;;;;;;;;;;4200884;34;20526;-67
2021/08/01 11:56:27;;;;;;;6.28;3.37;;;;;;;;;;4179518;34;20108;-71
2021/08/01 11:58:54;;;;;;;5.37;3.40;;;;;;;;;;4192067;34;20607;-69
2021/08/01 12:01:21;;;;;;;5.65;3.17;;;;;;;;;;4192237;34;20098;-69
2021/08/01 12:03:48;;;;;;;8.10;3.70;;;;;;;;;;4192129;34;20557;-70
2021/08/01 12:06:33;;;;;;;8.32;2.70;;;;;;;;;;4179033;34;20169;-70
2021/08/01 12:08:59;;;;;;;5.62;3.50;;;;;;;;;;4192105;34;20194;-68
2021/08/01 12:11:25;;;;;;;2.40;2.20;;;;;;;;;;4186124;34;20122;-66
2021/08/01 12:14:04;;;;;;;4.90;3.67;;;;;;;;;;4192813;34;20125;-68
2021/08/01 12:16:30;;;;;;;3.70;2.85;;;;;;;;;;4192650;34;20213;-69
2021/08/01 12:19:14;;;;;;;4.32;3.42;;;;;;;;;;4197293;34;20141;-67
2021/08/01 12:21:41;;;;;;;8.43;3.67;;;;;;;;;;4203703;34;20130;-67
2021/08/01 12:24:31;;;;;;;8.40;3.35;;;;;;;;;;4205798;34;20182;-72
2021/08/01 12:27:14;;;;;;;4.57;3.15;;;;;;;;;;4197640;34;20105;-71
2021/08/01 12:30:07;;;;;;;11.40;3.50;;;;;;;;;;4192099;34;20117;-71
2021/08/01 12:32:48;;;;;;;3.67;2.00;;;;;;;;;;4182254;34;20215;-66
2021/08/01 12:35:26;;;;;;;7.93;3.70;;;;;;;;;;4203029;34;20529;-69
2021/08/01 12:38:02;;;;;;;3.58;3.25;;;;;;;;;;4192421;34;20140;-67
2021/08/01 12:40:33;;;;;;;;;;;;;;;;;;4193373;34;20120;-69
2021/08/01 12:43:01;;;;;;;4.30;3.42;;;;;;;;;;4204933;34;19965;-66
2021/08/01 12:45:43;;;;;;;7.10;4.03;;;;;;;;;;4205223;34;20110;-67
2021/08/01 12:48:10;;;;;;;2.22;2.03;;;;;;;;;;4205025;34;20133;-67
2021/08/01 12:50:41;;;;;;;7.62;3.17;;;;;;;;;;4192279;34;20113;-68
2021/08/01 12:53:59;;;;;;;3.67;3.05;;;;;;;;;;4181968;34;20222;-66
2021/08/01 12:56:37;;;;;;;3.97;2.80;;;;;;;;;;4200728;34;20829;-69
2021/08/01 12:59:11;;;;;;;4.32;3.50;;;;;;;;;;4185736;34;20136;-68
2021/08/01 13:01:42;;;;;;;4.95;3.67;;;;;;;;;;4196690;34;20110;-67
2021/08/01 13:04:10;;;;;;;7.37;3.83;;;;;;;;;;4179418;34;20122;-68
2021/08/01 13:06:37;;;;;;;5.75;3.37;;;;;;;;;;4191729;34;20497;-70
2021/08/01 13:09:06;;;;;;;5.35;3.60;;;;;;;;;;4181475;34;20098;-70
2021/08/01 13:11:33;;;;;;;4.90;3.00;;;;;;;;;;4192560;34;20113;-67
2021/08/01 13:14:05;;;;;;;3.90;3.22;;;;;;;;;;4175169;34;20189;-67
2021/08/01 13:16:53;;;;;;;5.18;2.62;;;;;;;;;;4191585;34;20129;-68
2021/08/01 13:19:20;;;;;;;4.72;3.40;;;;;;;;;;4178816;34;20114;-71
2021/08/01 13:22:02;;;;;;;4.22;3.17;;;;;;;;;;4191490;34;20112;-68
2021/08/01 13:24:34;;;;;;;6.18;2.95;;;;;;;;;;4191596;34;20120;-70
2021/08/01 13:27:04;;;;;;;4.10;3.28;;;;;;;;;;4178644;34;20121;-66
2021/08/01 13:29:30;;;;;;;3.70;2.15;;;;;;;;;;4178642;34;20122;-67
2021/08/01 13:32:34;;;;;;;3.92;2.45;;;;;;;;;;4202367;34;20122;-70
2021/08/01 13:35:00;;;;;;;6.53;3.30;;;;;;;;;;4193774;34;20607;-70
2021/08/01 13:37:30;;;;;;;3.15;2.33;;;;;;;;;;4180659;34;20136;-71
2021/08/01 13:40:00;;;;;;;6.65;2.20;;;;;;;;;;4192048;34;20192;-65
2021/08/01 13:42:43;;;;;;;6.22;3.00;;;;;;;;;;4188160;34;20090;-72
2021/08/01 13:45:11;;;;;;;7.20;3.35;;;;;;;;;;4194745;34;20110;-72
2021/08/01 13:47:37;;;;;;;4.87;3.33;;;;;;;;;;4192078;34;20169;-67
2021/08/01 13:50:07;;;;;;;5.28;3.28;;;;;;;;;;4196940;34;20474;-69
2021/08/01 13:52:33;;;;;;;3.45;2.83;;;;;;;;;;4190880;34;20474;-64
2021/08/01 13:55:00;;;;;;;7.37;3.17;;;;;;;;;;4180463;34;20128;-66
2021/08/01 13:57:26;;;;;;;4.40;3.37;;;;;;;;;;4185904;34;20112;-69
2021/08/01 13:59:58;;;;;;;3.83;3.42;;;;;;;;;;4182314;34;20435;-67
2021/08/01 14:02:27;;;;;;;3.22;2.92;;;;;;;;;;4191214;34;20111;-66
2021/08/01 14:04:53;;;;;;;8.65;3.58;;;;;;;;;;4191080;34;20117;-66
2021/08/01 14:07:22;;;;;;;4.43;2.92;;;;;;;;;;4205108;34;20504;-65
2021/08/01 14:09:50;;;;;;;4.20;2.50;;;;;;;;;;4192254;34;20120;-71
2021/08/01 14:12:29;;;;;;;3.10;2.25;;;;;;;;;;4185479;34;20110;-66
2021/08/01 14:15:00;;;;;;;6.80;3.45;;;;;;;;;;4191390;34;20133;-66
2021/08/01 14:17:28;;;;;;;5.10;3.45;;;;;;;;;;4178441;34;20293;-71
2021/08/01 14:19:59;;;;;;;4.07;3.20;;;;;;;;;;4178240;34;20589;-70
2021/08/01 14:22:25;;;;;;;2.25;2.03;;;;;;;;;;4195452;34;20136;-73
2021/08/01 14:24:51;;;;;;;4.22;3.28;;;;;;;;;;4201725;34;20119;-70
2021/08/01 14:27:38;;;;;;;4.32;3.45;;;;;;;;;;4190853;34;20200;-66
2021/08/01 14:30:52;;;;;;;6.57;3.30;;;;;;;;;;4190994;34;20214;-66
2021/08/01 14:33:38;;;;;;;5.05;3.85;;;;;;;;;;4187333;34;20110;-66
2021/08/01 14:36:17;;;;;;;4.65;3.90;;;;;;;;;;4185961;34;20508;-66
2021/08/01 14:39:24;;;;;;;8.73;3.30;;;;;;;;;;4185456;34;20176;-66
2021/08/01 14:42:15;;;;;;;5.35;3.92;;;;;;;;;;4180575;34;20161;-71
2021/08/01 14:44:45;;;;;;;13.98;4.55;;;;;;;;;;4195758;34;20200;-70
2021/08/01 14:50:50;;;;;;;9.30;4.35;;;;;;;;;;4195796;34;20205;-67
2021/08/01 14:53:29;;;;;;;5.15;3.90;;;;;;;;;;4177249;34;20105;-71
2021/08/01 14:55:58;;;;;;;7.65;4.37;;;;;;;;;;4194976;34;20098;-72
2021/08/01 14:58:31;;;;;;;5.50;4.32;;;;;;;;;;4204560;34;20113;-65
2021/08/01 15:01:16;;;;;;;8.10;4.62;;;;;;;;;;4201386;34;20105;-71
2021/08/01 15:04:04;;;;;;;8.05;4.62;;;;;;;;;;4182844;34;20205;-71
2021/08/01 15:06:59;;;;;;;6.90;4.55;;;;;;;;;;4196855;34;20612;-70
2021/08/01 15:09:54;;;;;;;6.47;4.65;;;;;;;;;;4184663;34;20110;-65
2021/08/01 15:12:22;;;;;;;6.78;5.05;;;;;;;;;;4186816;34;20220;-67
2021/08/01 15:14:57;;;;;;;6.22;4.95;;;;;;;;;;4191793;34;20201;-71
2021/08/01 15:17:31;;;;;;;8.77;4.90;;;;;;;;;;4179193;34;20185;-67